createdAt,value
2022-08-03T00:07:23.420Z,99.90
2022-08-03T00:17:25.417Z,99.90
2022-08-03T00:27:27.310Z,99.90
2022-08-03T00:37:41.443Z,99.90
2022-08-03T00:47:44.673Z,99.90
2022-08-03T00:57:47.490Z,99.90
2022-08-03T01:08:15.467Z,99.90
2022-08-03T01:18:26.415Z,99.90
2022-08-03T01:28:59.909Z,99.90
2022-08-03T01:39:05.475Z,99.90
2022-08-03T01:49:10.962Z,99.90
2022-08-03T01:59:16.493Z,99.90
2022-08-03T02:09:21.033Z,99.90
2022-08-03T02:19:26.607Z,99.90
2022-08-03T02:29:38.830Z,99.90
2022-08-03T02:39:44.822Z,99.90
2022-08-03T02:49:50.821Z,99.90
2022-08-03T02:59:55.237Z,99.90
2022-08-03T03:09:57.587Z,99.90
2022-08-03T03:20:00.358Z,99.90
2022-08-03T03:30:03.290Z,99.90
2022-08-03T03:40:05.912Z,99.90
2022-08-03T03:50:08.283Z,99.90
2022-08-03T04:00:12.082Z,99.90
2022-08-03T04:10:21.269Z,99.90
2022-08-03T04:20:26.909Z,99.90
2022-08-03T04:30:30.183Z,99.90
2022-08-03T04:40:37.338Z,99.90
2022-08-03T04:50:40.796Z,99.90
2022-08-03T05:00:42.735Z,99.90
2022-08-03T05:10:45.008Z,99.90
2022-08-03T05:20:47.029Z,99.90
2022-08-03T05:30:48.965Z,99.90
2022-08-03T05:40:57.297Z,99.90
2022-08-03T05:51:12.854Z,99.90
2022-08-03T06:01:16.496Z,99.90
2022-08-03T06:11:18.575Z,99.90
2022-08-03T06:21:21.095Z,98.80
2022-08-03T06:31:32.424Z,96.80
2022-08-03T06:41:38.004Z,93.80
2022-08-03T06:52:04.442Z,92.20
2022-08-03T07:02:08.329Z,91.80
2022-08-03T07:12:10.382Z,88.90
2022-08-03T07:22:15.776Z,87.40
2022-08-03T07:32:18.364Z,85.30
2022-08-03T07:42:20.456Z,82.10
2022-08-03T07:52:22.391Z,80.00
2022-08-03T08:02:30.377Z,75.40
2022-08-03T08:12:32.367Z,74.10
2022-08-03T08:22:34.308Z,73.40
2022-08-03T08:32:36.182Z,70.30
2022-08-03T08:42:38.413Z,72.80
2022-08-03T08:52:41.432Z,69.00
2022-08-03T09:02:44.690Z,69.50
2022-08-03T09:12:51.102Z,69.90
2022-08-03T09:23:26.326Z,65.60
2022-08-03T09:33:36.190Z,65.80
2022-08-03T09:43:46.675Z,62.70
2022-08-03T09:53:58.494Z,63.20
2022-08-03T10:04:03.263Z,62.00
2022-08-03T10:14:07.853Z,62.30
2022-08-03T10:24:10.901Z,61.70
2022-08-03T10:34:22.598Z,58.80
2022-08-03T10:44:29.224Z,57.80
2022-08-03T10:54:37.161Z,56.30
2022-08-03T11:04:39.669Z,56.50
2022-08-03T11:14:48.945Z,56.10
2022-08-03T11:24:53.569Z,55.00
2022-08-03T11:35:16.681Z,55.50
2022-08-03T11:45:18.672Z,54.50
2022-08-03T11:55:21.080Z,56.00
2022-08-03T12:05:34.058Z,54.80
2022-08-03T12:15:37.126Z,55.60
2022-08-03T12:25:40.937Z,57.40
2022-08-03T12:35:52.339Z,57.00
2022-08-03T12:46:16.485Z,54.10
2022-08-03T12:56:18.392Z,53.70
2022-08-03T13:06:25.146Z,54.10
2022-08-03T13:16:26.975Z,55.60
2022-08-03T13:26:28.905Z,55.40
2022-08-03T13:36:42.736Z,55.90
2022-08-03T13:46:52.907Z,54.50
2022-08-03T13:56:57.825Z,54.80
2022-08-03T14:07:05.017Z,55.70
2022-08-03T14:17:07.144Z,55.30
2022-08-03T14:27:10.136Z,54.30
2022-08-03T14:37:12.197Z,55.20
2022-08-03T14:47:14.635Z,53.80
2022-08-03T14:57:16.663Z,52.50
2022-08-03T15:07:18.763Z,52.60
2022-08-03T15:17:21.107Z,52.80
2022-08-03T15:27:23.530Z,52.90
2022-08-03T15:37:26.085Z,52.70
2022-08-03T15:47:28.265Z,52.10
2022-08-03T15:57:30.295Z,52.60
2022-08-03T16:07:32.345Z,52.90
2022-08-03T16:17:34.277Z,52.70
2022-08-03T16:27:56.497Z,51.80
2022-08-03T16:37:58.494Z,52.80
2022-08-03T16:48:01.751Z,53.60
2022-08-03T16:58:07.787Z,53.90
2022-08-03T17:08:14.680Z,54.00
2022-08-03T17:18:19.143Z,54.50
2022-08-03T17:28:48.990Z,55.70
2022-08-03T17:38:49.901Z,55.10
2022-08-03T17:48:54.921Z,57.20
2022-08-03T17:59:09.026Z,59.90
2022-08-03T18:10:04.201Z,60.80
2022-08-03T18:20:02.734Z,64.60
2022-08-03T18:29:58.948Z,67.60
2022-08-03T18:40:02.767Z,69.50
2022-08-03T18:50:21.699Z,74.10
2022-08-03T19:00:42.713Z,84.20
2022-08-03T19:11:00.574Z,90.40
2022-08-03T19:21:12.722Z,91.20
2022-08-03T19:31:17.850Z,94.10
2022-08-03T19:41:27.409Z,97.40
2022-08-03T19:52:01.597Z,97.40
2022-08-03T20:01:57.237Z,99.00
2022-08-03T20:12:00.256Z,99.90
2022-08-03T20:22:02.701Z,99.90
2022-08-03T20:32:05.701Z,99.90
2022-08-03T20:42:08.715Z,99.90
2022-08-03T20:52:19.275Z,99.90
2022-08-03T21:02:30.541Z,99.90
2022-08-03T21:12:44.773Z,99.90
2022-08-03T21:22:52.148Z,99.90
2022-08-03T21:32:56.091Z,99.90
2022-08-03T21:42:57.993Z,99.90
2022-08-03T21:53:00.044Z,99.90
2022-08-03T22:03:15.233Z,99.90
2022-08-03T22:13:43.092Z,99.90
2022-08-03T22:23:45.698Z,99.90
2022-08-03T22:33:49.179Z,99.90
2022-08-03T22:43:51.268Z,99.90
2022-08-03T22:53:53.329Z,99.90
2022-08-03T23:04:02.888Z,99.90
2022-08-03T23:14:11.124Z,99.90
2022-08-03T23:24:24.650Z,99.90
2022-08-03T23:34:33.997Z,99.90
2022-08-03T23:44:38.685Z,99.90
2022-08-03T23:54:40.854Z,99.90
